sensor_id;sensor_type;location;lat;lon;timestamp;P1;durP1;ratioP1;P2;durP2;ratioP2
6093;SDS011;19964;42.060;24.700;2023-07-13T00:24:14;9.63;;;8.77;;
6093;SDS011;19964;42.060;24.700;2023-07-13T00:26:48;9.70;;;8.77;;
6093;SDS011;19964;42.060;24.700;2023-07-13T00:29:15;10.18;;;8.25;;
6093;SDS011;19964;42.060;24.700;2023-07-13T00:31:42;10.07;;;9.07;;
6093;SDS011;19964;42.060;24.700;2023-07-13T00:34:09;8.95;;;8.25;;
6093;SDS011;19964;42.060;24.700;2023-07-13T00:36:36;10.18;;;8.77;;
6093;SDS011;19964;42.060;24.700;2023-07-13T00:39:03;9.10;;;8.38;;
6093;SDS011;19964;42.060;24.700;2023-07-13T04:29:30;9.27;;;8.07;;
6093;SDS011;19964;42.060;24.700;2023-07-13T04:31:57;10.93;;;8.50;;
6093;SDS011;19964;42.060;24.700;2023-07-13T04:34:24;9.13;;;8.32;;
6093;SDS011;19964;42.060;24.700;2023-07-13T04:36:51;8.75;;;7.90;;
6093;SDS011;19964;42.060;24.700;2023-07-13T04:39:18;9.40;;;8.57;;
6093;SDS011;19964;42.060;24.700;2023-07-13T04:41:46;10.32;;;9.25;;
6093;SDS011;19964;42.060;24.700;2023-07-13T04:46:40;11.02;;;9.93;;
6093;SDS011;19964;42.060;24.700;2023-07-13T04:49:07;11.40;;;10.25;;
6093;SDS011;19964;42.060;24.700;2023-07-13T04:51:34;12.82;;;10.68;;
6093;SDS011;19964;42.060;24.700;2023-07-13T04:54:01;12.27;;;11.23;;
6093;SDS011;19964;42.060;24.700;2023-07-13T04:56:27;12.43;;;10.85;;
6093;SDS011;19964;42.060;24.700;2023-07-13T04:58:55;11.35;;;10.35;;
6093;SDS011;19964;42.060;24.700;2023-07-13T05:01:23;12.13;;;11.02;;
6093;SDS011;19964;42.060;24.700;2023-07-13T05:03:51;11.35;;;10.20;;
6093;SDS011;19964;42.060;24.700;2023-07-13T05:06:20;13.60;;;10.60;;
6093;SDS011;19964;42.060;24.700;2023-07-13T05:21:02;12.75;;;10.60;;
6093;SDS011;19964;42.060;24.700;2023-07-13T05:25:58;15.32;;;10.75;;
6093;SDS011;19964;42.060;24.700;2023-07-13T05:28:25;11.65;;;10.48;;
6093;SDS011;19964;42.060;24.700;2023-07-13T05:30:52;12.38;;;11.07;;
6093;SDS011;19964;42.060;24.700;2023-07-13T05:33:20;15.13;;;11.00;;
6093;SDS011;19964;42.060;24.700;2023-07-13T05:35:47;13.73;;;11.57;;
6093;SDS011;19964;42.060;24.700;2023-07-13T05:38:15;14.02;;;12.50;;
6093;SDS011;19964;42.060;24.700;2023-07-13T05:40:42;16.00;;;12.27;;
6093;SDS011;19964;42.060;24.700;2023-07-13T05:43:09;14.88;;;12.13;;
6093;SDS011;19964;42.060;24.700;2023-07-13T05:45:36;16.08;;;13.02;;
6093;SDS011;19964;42.060;24.700;2023-07-13T05:48:03;18.88;;;14.15;;
6093;SDS011;19964;42.060;24.700;2023-07-13T05:57:51;15.00;;;12.68;;
6093;SDS011;19964;42.060;24.700;2023-07-13T06:00:18;14.98;;;12.73;;
6093;SDS011;19964;42.060;24.700;2023-07-13T06:19:52;16.40;;;12.77;;
6093;SDS011;19964;42.060;24.700;2023-07-13T06:22:19;18.98;;;12.05;;
6093;SDS011;19964;42.060;24.700;2023-07-13T06:24:46;16.73;;;12.63;;
6093;SDS011;19964;42.060;24.700;2023-07-13T06:27:12;17.25;;;11.82;;
6093;SDS011;19964;42.060;24.700;2023-07-13T06:29:41;17.92;;;11.77;;
6093;SDS011;19964;42.060;24.700;2023-07-13T06:32:10;19.48;;;12.90;;
6093;SDS011;19964;42.060;24.700;2023-07-13T06:34:37;16.30;;;11.65;;
6093;SDS011;19964;42.060;24.700;2023-07-13T06:37:03;12.90;;;11.57;;
6093;SDS011;19964;42.060;24.700;2023-07-13T06:39:30;17.00;;;12.18;;
6093;SDS011;19964;42.060;24.700;2023-07-13T06:41:58;13.27;;;11.82;;
6093;SDS011;19964;42.060;24.700;2023-07-13T06:44:25;14.50;;;12.45;;
6093;SDS011;19964;42.060;24.700;2023-07-13T06:46:53;23.95;;;12.48;;
6093;SDS011;19964;42.060;24.700;2023-07-13T06:49:20;18.90;;;12.60;;
6093;SDS011;19964;42.060;24.700;2023-07-13T06:51:46;15.23;;;11.88;;
6093;SDS011;19964;42.060;24.700;2023-07-13T06:54:13;14.02;;;12.10;;
6093;SDS011;19964;42.060;24.700;2023-07-13T06:56:40;14.32;;;12.43;;
6093;SDS011;19964;42.060;24.700;2023-07-13T06:59:07;12.70;;;11.43;;
6093;SDS011;19964;42.060;24.700;2023-07-13T07:01:34;14.13;;;12.70;;
6093;SDS011;19964;42.060;24.700;2023-07-13T07:04:02;17.25;;;12.02;;
6093;SDS011;19964;42.060;24.700;2023-07-13T07:06:30;12.80;;;11.50;;
6093;SDS011;19964;42.060;24.700;2023-07-13T07:08:57;13.88;;;11.68;;
6093;SDS011;19964;42.060;24.700;2023-07-13T07:11:24;18.08;;;14.43;;
6093;SDS011;19964;42.060;24.700;2023-07-13T07:13:52;14.57;;;12.35;;
6093;SDS011;19964;42.060;24.700;2023-07-13T07:16:19;17.85;;;12.70;;
6093;SDS011;19964;42.060;24.700;2023-07-13T07:18:47;16.83;;;11.70;;
6093;SDS011;19964;42.060;24.700;2023-07-13T07:21:15;15.57;;;11.60;;
6093;SDS011;19964;42.060;24.700;2023-07-13T07:23:42;13.93;;;12.38;;
6093;SDS011;19964;42.060;24.700;2023-07-13T07:26:09;12.85;;;11.57;;
6093;SDS011;19964;42.060;24.700;2023-07-13T07:28:36;14.13;;;11.93;;
6093;SDS011;19964;42.060;24.700;2023-07-13T07:31:03;13.18;;;11.20;;
6093;SDS011;19964;42.060;24.700;2023-07-13T07:33:32;12.65;;;11.38;;
6093;SDS011;19964;42.060;24.700;2023-07-13T07:35:59;12.05;;;10.95;;
6093;SDS011;19964;42.060;24.700;2023-07-13T07:38:27;12.57;;;11.27;;
6093;SDS011;19964;42.060;24.700;2023-07-13T07:40:54;16.48;;;11.40;;
6093;SDS011;19964;42.060;24.700;2023-07-13T07:43:21;13.02;;;11.82;;
6093;SDS011;19964;42.060;24.700;2023-07-13T07:45:47;14.68;;;12.07;;
6093;SDS011;19964;42.060;24.700;2023-07-13T07:48:14;13.07;;;11.52;;
6093;SDS011;19964;42.060;24.700;2023-07-13T07:50:41;14.38;;;11.35;;
6093;SDS011;19964;42.060;24.700;2023-07-13T07:53:08;14.00;;;11.35;;
6093;SDS011;19964;42.060;24.700;2023-07-13T07:55:39;14.57;;;11.48;;
6093;SDS011;19964;42.060;24.700;2023-07-13T07:58:06;11.80;;;10.70;;
6093;SDS011;19964;42.060;24.700;2023-07-13T08:00:33;17.73;;;10.65;;
6093;SDS011;19964;42.060;24.700;2023-07-13T08:03:00;12.23;;;11.02;;
6093;SDS011;19964;42.060;24.700;2023-07-13T08:05:28;14.45;;;11.05;;
6093;SDS011;19964;42.060;24.700;2023-07-13T08:07:55;14.30;;;9.98;;
6093;SDS011;19964;42.060;24.700;2023-07-13T08:10:22;11.30;;;10.15;;
6093;SDS011;19964;42.060;24.700;2023-07-13T08:12:50;10.57;;;9.77;;
6093;SDS011;19964;42.060;24.700;2023-07-13T08:15:17;12.38;;;11.13;;
6093;SDS011;19964;42.060;24.700;2023-07-13T08:17:45;12.68;;;10.35;;
6093;SDS011;19964;42.060;24.700;2023-07-13T08:20:13;12.48;;;10.52;;
6093;SDS011;19964;42.060;24.700;2023-07-13T08:22:39;11.55;;;10.35;;
6093;SDS011;19964;42.060;24.700;2023-07-13T08:25:07;10.65;;;9.90;;
6093;SDS011;19964;42.060;24.700;2023-07-13T08:27:34;10.57;;;9.77;;
6093;SDS011;19964;42.060;24.700;2023-07-13T08:30:02;12.65;;;10.48;;
6093;SDS011;19964;42.060;24.700;2023-07-13T08:32:30;11.60;;;10.45;;
6093;SDS011;19964;42.060;24.700;2023-07-13T08:34:57;11.35;;;10.02;;
6093;SDS011;19964;42.060;24.700;2023-07-13T08:37:24;11.32;;;10.32;;
6093;SDS011;19964;42.060;24.700;2023-07-13T08:39:51;15.15;;;10.13;;
6093;SDS011;19964;42.060;24.700;2023-07-13T08:42:22;10.43;;;9.45;;
6093;SDS011;19964;42.060;24.700;2023-07-13T08:45:01;10.95;;;9.77;;
6093;SDS011;19964;42.060;24.700;2023-07-13T08:47:37;9.73;;;8.93;;
6093;SDS011;19964;42.060;24.700;2023-07-13T08:50:09;10.27;;;9.20;;
6093;SDS011;19964;42.060;24.700;2023-07-13T08:52:38;10.23;;;9.23;;
6093;SDS011;19964;42.060;24.700;2023-07-13T08:55:09;9.93;;;9.02;;
6093;SDS011;19964;42.060;24.700;2023-07-13T08:57:39;9.88;;;9.10;;
6093;SDS011;19964;42.060;24.700;2023-07-13T09:00:10;10.00;;;9.20;;
6093;SDS011;19964;42.060;24.700;2023-07-13T09:02:41;9.90;;;8.90;;
6093;SDS011;19964;42.060;24.700;2023-07-13T09:05:12;9.50;;;8.57;;
6093;SDS011;19964;42.060;24.700;2023-07-13T09:07:44;10.65;;;8.38;;
6093;SDS011;19964;42.060;24.700;2023-07-13T09:10:32;10.27;;;8.38;;
6093;SDS011;19964;42.060;24.700;2023-07-13T09:13:07;12.38;;;8.52;;
6093;SDS011;19964;42.060;24.700;2023-07-13T09:15:50;9.45;;;8.68;;
6093;SDS011;19964;42.060;24.700;2023-07-13T09:18:20;9.15;;;8.00;;
6093;SDS011;19964;42.060;24.700;2023-07-13T09:20:52;11.95;;;8.35;;
6093;SDS011;19964;42.060;24.700;2023-07-13T09:23:23;9.32;;;8.05;;
6093;SDS011;19964;42.060;24.700;2023-07-13T09:25:57;8.93;;;8.02;;
6093;SDS011;19964;42.060;24.700;2023-07-13T09:28:29;9.68;;;8.10;;
6093;SDS011;19964;42.060;24.700;2023-07-13T09:31:06;9.00;;;8.10;;
6093;SDS011;19964;42.060;24.700;2023-07-13T09:33:38;8.48;;;7.65;;
6093;SDS011;19964;42.060;24.700;2023-07-13T09:36:15;8.82;;;8.00;;
6093;SDS011;19964;42.060;24.700;2023-07-13T09:38:44;8.80;;;8.13;;
6093;SDS011;19964;42.060;24.700;2023-07-13T09:41:15;8.85;;;7.93;;
6093;SDS011;19964;42.060;24.700;2023-07-13T09:44:06;8.88;;;8.27;;
6093;SDS011;19964;42.060;24.700;2023-07-13T09:46:38;9.35;;;7.70;;
6093;SDS011;19964;42.060;24.700;2023-07-13T09:49:09;9.43;;;7.68;;
6093;SDS011;19964;42.060;24.700;2023-07-13T09:51:37;7.55;;;6.90;;
6093;SDS011;19964;42.060;24.700;2023-07-13T09:54:04;8.55;;;7.85;;
6093;SDS011;19964;42.060;24.700;2023-07-13T09:56:31;9.98;;;7.20;;
6093;SDS011;19964;42.060;24.700;2023-07-13T09:58:58;7.38;;;6.78;;
6093;SDS011;19964;42.060;24.700;2023-07-13T10:01:32;7.13;;;6.60;;
6093;SDS011;19964;42.060;24.700;2023-07-13T10:04:01;7.00;;;6.35;;
6093;SDS011;19964;42.060;24.700;2023-07-13T10:06:37;7.55;;;6.82;;
6093;SDS011;19964;42.060;24.700;2023-07-13T10:09:06;6.53;;;6.00;;
6093;SDS011;19964;42.060;24.700;2023-07-13T10:11:34;11.90;;;6.93;;
6093;SDS011;19964;42.060;24.700;2023-07-13T10:14:02;7.90;;;7.10;;
6093;SDS011;19964;42.060;24.700;2023-07-13T10:16:36;7.72;;;7.03;;
6093;SDS011;19964;42.060;24.700;2023-07-13T10:19:06;7.97;;;7.18;;
6093;SDS011;19964;42.060;24.700;2023-07-13T10:21:43;9.63;;;6.80;;
6093;SDS011;19964;42.060;24.700;2023-07-13T10:24:17;6.93;;;6.32;;
6093;SDS011;19964;42.060;24.700;2023-07-13T10:26:48;8.85;;;7.18;;
6093;SDS011;19964;42.060;24.700;2023-07-13T10:29:20;8.43;;;6.60;;
6093;SDS011;19964;42.060;24.700;2023-07-13T10:31:50;8.15;;;7.43;;
6093;SDS011;19964;42.060;24.700;2023-07-13T10:34:19;8.38;;;7.60;;
6093;SDS011;19964;42.060;24.700;2023-07-13T10:36:46;7.93;;;7.00;;
6093;SDS011;19964;42.060;24.700;2023-07-13T10:39:15;8.75;;;7.53;;
6093;SDS011;19964;42.060;24.700;2023-07-13T10:41:45;8.00;;;7.30;;
6093;SDS011;19964;42.060;24.700;2023-07-13T10:44:18;7.93;;;7.22;;
6093;SDS011;19964;42.060;24.700;2023-07-13T10:46:51;9.98;;;7.60;;
6093;SDS011;19964;42.060;24.700;2023-07-13T10:49:21;8.68;;;7.90;;
6093;SDS011;19964;42.060;24.700;2023-07-13T10:51:49;8.27;;;7.55;;
6093;SDS011;19964;42.060;24.700;2023-07-13T10:54:18;8.85;;;7.93;;
6093;SDS011;19964;42.060;24.700;2023-07-13T10:56:49;9.50;;;7.50;;
6093;SDS011;19964;42.060;24.700;2023-07-13T10:59:18;8.23;;;7.22;;
6093;SDS011;19964;42.060;24.700;2023-07-13T11:01:53;11.15;;;7.65;;
6093;SDS011;19964;42.060;24.700;2023-07-13T11:04:24;8.15;;;7.35;;
6093;SDS011;19964;42.060;24.700;2023-07-13T11:06:53;9.35;;;7.40;;
6093;SDS011;19964;42.060;24.700;2023-07-13T11:09:35;8.30;;;7.45;;
6093;SDS011;19964;42.060;24.700;2023-07-13T11:12:08;7.82;;;7.15;;
6093;SDS011;19964;42.060;24.700;2023-07-13T11:15:03;7.82;;;7.20;;
6093;SDS011;19964;42.060;24.700;2023-07-13T11:17:36;8.57;;;7.78;;
6093;SDS011;19964;42.060;24.700;2023-07-13T11:20:22;7.18;;;6.55;;
6093;SDS011;19964;42.060;24.700;2023-07-13T11:23:07;9.50;;;6.78;;
6093;SDS011;19964;42.060;24.700;2023-07-13T11:25:45;8.50;;;7.40;;
6093;SDS011;19964;42.060;24.700;2023-07-13T11:28:17;9.18;;;7.35;;
6093;SDS011;19964;42.060;24.700;2023-07-13T11:30:49;11.48;;;7.18;;
6093;SDS011;19964;42.060;24.700;2023-07-13T11:33:27;7.30;;;6.63;;
6093;SDS011;19964;42.060;24.700;2023-07-13T11:36:00;8.80;;;6.50;;
6093;SDS011;19964;42.060;24.700;2023-07-13T11:38:32;10.63;;;6.50;;
6093;SDS011;19964;42.060;24.700;2023-07-13T11:41:04;8.88;;;6.53;;
6093;SDS011;19964;42.060;24.700;2023-07-13T11:43:32;8.35;;;6.47;;
6093;SDS011;19964;42.060;24.700;2023-07-13T11:46:11;10.93;;;6.70;;
6093;SDS011;19964;42.060;24.700;2023-07-13T11:48:39;11.88;;;6.80;;
6093;SDS011;19964;42.060;24.700;2023-07-13T11:51:09;7.60;;;6.80;;
6093;SDS011;19964;42.060;24.700;2023-07-13T11:53:44;11.00;;;7.20;;
6093;SDS011;19964;42.060;24.700;2023-07-13T11:56:12;9.77;;;6.72;;
6093;SDS011;19964;42.060;24.700;2023-07-13T11:58:39;8.30;;;6.30;;
6093;SDS011;19964;42.060;24.700;2023-07-13T12:01:10;7.50;;;6.00;;
6093;SDS011;19964;42.060;24.700;2023-07-13T12:03:44;7.72;;;6.75;;
6093;SDS011;19964;42.060;24.700;2023-07-13T12:06:22;9.20;;;6.22;;
6093;SDS011;19964;42.060;24.700;2023-07-13T12:08:55;13.07;;;6.63;;
6093;SDS011;19964;42.060;24.700;2023-07-13T12:11:23;7.50;;;6.72;;
6093;SDS011;19964;42.060;24.700;2023-07-13T12:13:50;11.40;;;6.25;;
6093;SDS011;19964;42.060;24.700;2023-07-13T12:16:19;11.15;;;6.10;;
6093;SDS011;19964;42.060;24.700;2023-07-13T12:18:52;6.30;;;5.70;;
6093;SDS011;19964;42.060;24.700;2023-07-13T12:21:21;8.13;;;5.78;;
6093;SDS011;19964;42.060;24.700;2023-07-13T12:23:54;13.55;;;6.68;;
6093;SDS011;19964;42.060;24.700;2023-07-13T12:26:21;7.68;;;6.18;;
6093;SDS011;19964;42.060;24.700;2023-07-13T12:28:49;14.85;;;6.47;;
6093;SDS011;19964;42.060;24.700;2023-07-13T12:31:25;11.20;;;6.20;;
6093;SDS011;19964;42.060;24.700;2023-07-13T12:33:59;12.18;;;5.85;;
6093;SDS011;19964;42.060;24.700;2023-07-13T12:36:30;12.32;;;5.95;;
6093;SDS011;19964;42.060;24.700;2023-07-13T12:39:00;8.25;;;5.78;;
6093;SDS011;19964;42.060;24.700;2023-07-13T12:41:36;10.52;;;6.10;;
6093;SDS011;19964;42.060;24.700;2023-07-13T12:44:03;8.48;;;6.00;;
6093;SDS011;19964;42.060;24.700;2023-07-13T12:46:31;8.95;;;5.72;;
6093;SDS011;19964;42.060;24.700;2023-07-13T12:48:57;9.82;;;5.47;;
6093;SDS011;19964;42.060;24.700;2023-07-13T12:51:25;8.35;;;5.80;;
6093;SDS011;19964;42.060;24.700;2023-07-13T12:53:55;9.68;;;5.55;;
6093;SDS011;19964;42.060;24.700;2023-07-13T12:56:25;8.48;;;5.60;;
6093;SDS011;19964;42.060;24.700;2023-07-13T12:58:56;8.68;;;5.88;;
6093;SDS011;19964;42.060;24.700;2023-07-13T13:01:26;12.20;;;6.10;;
6093;SDS011;19964;42.060;24.700;2023-07-13T13:03:54;9.27;;;5.85;;
6093;SDS011;19964;42.060;24.700;2023-07-13T13:06:22;11.52;;;6.07;;
6093;SDS011;19964;42.060;24.700;2023-07-13T13:08:51;6.78;;;5.70;;
6093;SDS011;19964;42.060;24.700;2023-07-13T13:11:23;11.00;;;6.03;;
6093;SDS011;19964;42.060;24.700;2023-07-13T13:13:51;10.65;;;5.28;;
6093;SDS011;19964;42.060;24.700;2023-07-13T13:16:20;7.40;;;5.45;;
6093;SDS011;19964;42.060;24.700;2023-07-13T13:18:48;10.50;;;5.40;;
6093;SDS011;19964;42.060;24.700;2023-07-13T13:21:16;10.45;;;5.57;;
6093;SDS011;19964;42.060;24.700;2023-07-13T13:23:44;21.38;;;5.60;;
6093;SDS011;19964;42.060;24.700;2023-07-13T13:26:11;11.02;;;5.32;;
6093;SDS011;19964;42.060;24.700;2023-07-13T13:28:41;18.23;;;6.25;;
6093;SDS011;19964;42.060;24.700;2023-07-13T13:31:09;15.82;;;5.72;;
6093;SDS011;19964;42.060;24.700;2023-07-13T13:33:37;10.32;;;5.65;;
6093;SDS011;19964;42.060;24.700;2023-07-13T13:36:08;10.80;;;5.50;;
6093;SDS011;19964;42.060;24.700;2023-07-13T13:38:40;13.80;;;5.70;;
6093;SDS011;19964;42.060;24.700;2023-07-13T13:41:08;11.55;;;5.03;;
6093;SDS011;19964;42.060;24.700;2023-07-13T13:43:36;14.80;;;5.63;;
6093;SDS011;19964;42.060;24.700;2023-07-13T13:46:08;14.35;;;5.22;;
6093;SDS011;19964;42.060;24.700;2023-07-13T13:48:40;13.63;;;5.65;;
6093;SDS011;19964;42.060;24.700;2023-07-13T13:51:12;14.25;;;5.65;;
6093;SDS011;19964;42.060;24.700;2023-07-13T13:53:40;12.55;;;5.80;;
6093;SDS011;19964;42.060;24.700;2023-07-13T13:56:07;14.75;;;5.55;;
6093;SDS011;19964;42.060;24.700;2023-07-13T13:58:34;14.65;;;5.53;;
6093;SDS011;19964;42.060;24.700;2023-07-13T14:01:01;14.13;;;6.00;;
6093;SDS011;19964;42.060;24.700;2023-07-13T14:03:32;15.95;;;5.53;;
6093;SDS011;19964;42.060;24.700;2023-07-13T14:05:59;18.33;;;5.78;;
6093;SDS011;19964;42.060;24.700;2023-07-13T14:08:26;15.20;;;5.85;;
6093;SDS011;19964;42.060;24.700;2023-07-13T14:10:54;17.95;;;5.72;;
6093;SDS011;19964;42.060;24.700;2023-07-13T14:13:24;10.23;;;5.70;;
6093;SDS011;19964;42.060;24.700;2023-07-13T14:15:53;19.70;;;5.90;;
6093;SDS011;19964;42.060;24.700;2023-07-13T14:18:20;12.38;;;6.53;;
6093;SDS011;19964;42.060;24.700;2023-07-13T14:20:50;12.68;;;6.60;;
6093;SDS011;19964;42.060;24.700;2023-07-13T14:23:17;9.65;;;6.32;;
6093;SDS011;19964;42.060;24.700;2023-07-13T14:25:44;14.25;;;6.47;;
6093;SDS011;19964;42.060;24.700;2023-07-13T14:28:17;9.77;;;6.20;;
6093;SDS011;19964;42.060;24.700;2023-07-13T14:30:47;13.20;;;5.80;;
6093;SDS011;19964;42.060;24.700;2023-07-13T14:33:14;11.35;;;6.40;;
6093;SDS011;19964;42.060;24.700;2023-07-13T14:35:40;12.70;;;6.05;;
6093;SDS011;19964;42.060;24.700;2023-07-13T14:38:10;9.25;;;5.90;;
6093;SDS011;19964;42.060;24.700;2023-07-13T14:40:39;10.77;;;6.55;;
6093;SDS011;19964;42.060;24.700;2023-07-13T14:43:09;10.95;;;6.43;;
6093;SDS011;19964;42.060;24.700;2023-07-13T14:45:38;16.10;;;6.68;;
6093;SDS011;19964;42.060;24.700;2023-07-13T14:48:13;14.73;;;6.55;;
6093;SDS011;19964;42.060;24.700;2023-07-13T14:50:44;11.15;;;6.78;;
6093;SDS011;19964;42.060;24.700;2023-07-13T14:53:13;10.18;;;6.93;;
6093;SDS011;19964;42.060;24.700;2023-07-13T14:55:40;12.00;;;6.45;;
6093;SDS011;19964;42.060;24.700;2023-07-13T14:58:07;13.02;;;7.28;;
6093;SDS011;19964;42.060;24.700;2023-07-13T15:00:35;9.00;;;6.70;;
6093;SDS011;19964;42.060;24.700;2023-07-13T15:03:02;12.90;;;6.43;;
6093;SDS011;19964;42.060;24.700;2023-07-13T15:05:31;15.32;;;6.55;;
6093;SDS011;19964;42.060;24.700;2023-07-13T15:07:59;11.30;;;6.22;;
6093;SDS011;19964;42.060;24.700;2023-07-13T15:10:30;13.10;;;7.18;;
6093;SDS011;19964;42.060;24.700;2023-07-13T15:12:59;14.70;;;6.65;;
6093;SDS011;19964;42.060;24.700;2023-07-13T15:15:28;15.77;;;6.57;;
6093;SDS011;19964;42.060;24.700;2023-07-13T15:17:58;15.73;;;6.80;;
6093;SDS011;19964;42.060;24.700;2023-07-13T15:20:27;18.20;;;6.75;;
6093;SDS011;19964;42.060;24.700;2023-07-13T15:22:56;18.20;;;6.97;;
6093;SDS011;19964;42.060;24.700;2023-07-13T15:25:24;13.55;;;6.53;;
6093;SDS011;19964;42.060;24.700;2023-07-13T15:27:54;12.90;;;6.85;;
6093;SDS011;19964;42.060;24.700;2023-07-13T15:30:22;14.32;;;7.20;;
6093;SDS011;19964;42.060;24.700;2023-07-13T15:32:50;18.42;;;7.15;;
6093;SDS011;19964;42.060;24.700;2023-07-13T15:35:18;10.48;;;6.53;;
6093;SDS011;19964;42.060;24.700;2023-07-13T15:37:47;15.88;;;6.72;;
6093;SDS011;19964;42.060;24.700;2023-07-13T15:40:15;21.92;;;6.70;;
6093;SDS011;19964;42.060;24.700;2023-07-13T15:42:42;15.80;;;6.68;;
6093;SDS011;19964;42.060;24.700;2023-07-13T15:45:16;20.27;;;7.18;;
6093;SDS011;19964;42.060;24.700;2023-07-13T15:47:45;20.67;;;6.72;;
6093;SDS011;19964;42.060;24.700;2023-07-13T15:50:13;14.57;;;6.35;;
6093;SDS011;19964;42.060;24.700;2023-07-13T15:52:40;13.65;;;6.43;;
6093;SDS011;19964;42.060;24.700;2023-07-13T15:55:09;17.15;;;6.80;;
6093;SDS011;19964;42.060;24.700;2023-07-13T15:57:38;17.52;;;6.60;;
6093;SDS011;19964;42.060;24.700;2023-07-13T16:00:13;11.80;;;6.15;;
6093;SDS011;19964;42.060;24.700;2023-07-13T16:02:46;15.57;;;6.78;;
6093;SDS011;19964;42.060;24.700;2023-07-13T16:05:13;15.18;;;5.78;;
6093;SDS011;19964;42.060;24.700;2023-07-13T16:07:41;12.80;;;6.22;;
6093;SDS011;19964;42.060;24.700;2023-07-13T16:10:12;12.02;;;5.97;;
6093;SDS011;19964;42.060;24.700;2023-07-13T16:12:41;16.98;;;6.35;;
6093;SDS011;19964;42.060;24.700;2023-07-13T16:15:10;11.35;;;6.40;;
6093;SDS011;19964;42.060;24.700;2023-07-13T16:17:41;16.05;;;6.88;;
6093;SDS011;19964;42.060;24.700;2023-07-13T16:20:09;19.25;;;6.43;;
6093;SDS011;19964;42.060;24.700;2023-07-13T16:22:38;12.45;;;6.93;;
6093;SDS011;19964;42.060;24.700;2023-07-13T16:25:13;15.50;;;6.72;;
6093;SDS011;19964;42.060;24.700;2023-07-13T16:27:41;14.05;;;7.88;;
6093;SDS011;19964;42.060;24.700;2023-07-13T16:30:12;14.90;;;9.07;;
6093;SDS011;19964;42.060;24.700;2023-07-13T16:32:42;20.05;;;7.72;;
6093;SDS011;19964;42.060;24.700;2023-07-13T16:35:09;9.95;;;7.25;;
6093;SDS011;19964;42.060;24.700;2023-07-13T16:37:36;11.52;;;7.13;;
6093;SDS011;19964;42.060;24.700;2023-07-13T16:40:05;12.45;;;7.22;;
6093;SDS011;19964;42.060;24.700;2023-07-13T16:42:49;15.20;;;7.60;;
6093;SDS011;19964;42.060;24.700;2023-07-13T16:45:18;12.95;;;7.20;;
6093;SDS011;19964;42.060;24.700;2023-07-13T16:47:47;15.52;;;7.57;;
6093;SDS011;19964;42.060;24.700;2023-07-13T16:50:16;12.90;;;7.82;;
6093;SDS011;19964;42.060;24.700;2023-07-13T16:52:44;10.88;;;7.25;;
6093;SDS011;19964;42.060;24.700;2023-07-13T16:55:13;17.73;;;7.55;;
6093;SDS011;19964;42.060;24.700;2023-07-13T16:57:42;13.45;;;7.28;;
6093;SDS011;19964;42.060;24.700;2023-07-13T17:00:18;19.75;;;7.68;;
6093;SDS011;19964;42.060;24.700;2023-07-13T17:02:54;10.00;;;7.20;;
6093;SDS011;19964;42.060;24.700;2023-07-13T17:05:26;10.50;;;7.40;;
6093;SDS011;19964;42.060;24.700;2023-07-13T17:07:54;13.98;;;7.35;;
6093;SDS011;19964;42.060;24.700;2023-07-13T17:10:22;11.02;;;7.45;;
6093;SDS011;19964;42.060;24.700;2023-07-13T17:12:49;12.98;;;6.90;;
6093;SDS011;19964;42.060;24.700;2023-07-13T17:15:17;12.05;;;6.80;;
6093;SDS011;19964;42.060;24.700;2023-07-13T17:17:45;16.23;;;7.70;;
6093;SDS011;19964;42.060;24.700;2023-07-13T17:20:18;16.45;;;7.50;;
6093;SDS011;19964;42.060;24.700;2023-07-13T17:22:52;12.23;;;7.40;;
6093;SDS011;19964;42.060;24.700;2023-07-13T17:25:19;13.18;;;6.80;;
6093;SDS011;19964;42.060;24.700;2023-07-13T17:27:47;10.18;;;6.50;;
6093;SDS011;19964;42.060;24.700;2023-07-13T17:30:15;14.32;;;6.47;;
6093;SDS011;19964;42.060;24.700;2023-07-13T17:32:43;11.07;;;7.32;;
6093;SDS011;19964;42.060;24.700;2023-07-13T17:35:16;10.13;;;6.20;;
6093;SDS011;19964;42.060;24.700;2023-07-13T17:37:49;18.95;;;6.95;;
6093;SDS011;19964;42.060;24.700;2023-07-13T17:40:17;12.45;;;6.57;;
6093;SDS011;19964;42.060;24.700;2023-07-13T17:42:46;13.15;;;6.90;;
6093;SDS011;19964;42.060;24.700;2023-07-13T17:45:12;12.43;;;6.60;;
6093;SDS011;19964;42.060;24.700;2023-07-13T17:47:45;11.82;;;7.15;;
6093;SDS011;19964;42.060;24.700;2023-07-13T17:50:15;14.02;;;7.05;;
6093;SDS011;19964;42.060;24.700;2023-07-13T17:52:49;14.75;;;7.05;;
6093;SDS011;19964;42.060;24.700;2023-07-13T17:55:16;12.13;;;6.53;;
6093;SDS011;19964;42.060;24.700;2023-07-13T17:57:45;12.35;;;6.80;;
6093;SDS011;19964;42.060;24.700;2023-07-13T18:00:15;15.82;;;7.18;;
6093;SDS011;19964;42.060;24.700;2023-07-13T18:03:03;12.10;;;6.95;;
6093;SDS011;19964;42.060;24.700;2023-07-13T18:05:32;15.30;;;6.80;;
6093;SDS011;19964;42.060;24.700;2023-07-13T18:08:02;22.98;;;7.85;;
6093;SDS011;19964;42.060;24.700;2023-07-13T18:10:30;10.63;;;6.45;;
6093;SDS011;19964;42.060;24.700;2023-07-13T18:12:57;12.68;;;6.78;;
6093;SDS011;19964;42.060;24.700;2023-07-13T18:15:26;12.90;;;6.95;;
6093;SDS011;19964;42.060;24.700;2023-07-13T18:17:57;11.60;;;6.75;;
6093;SDS011;19964;42.060;24.700;2023-07-13T18:20:25;16.35;;;6.38;;
6093;SDS011;19964;42.060;24.700;2023-07-13T18:22:52;13.02;;;7.30;;
6093;SDS011;19964;42.060;24.700;2023-07-13T18:25:21;14.95;;;7.13;;
6093;SDS011;19964;42.060;24.700;2023-07-13T18:27:50;22.50;;;7.25;;
6093;SDS011;19964;42.060;24.700;2023-07-13T18:30:18;13.23;;;6.78;;
6093;SDS011;19964;42.060;24.700;2023-07-13T18:32:47;13.15;;;6.63;;
6093;SDS011;19964;42.060;24.700;2023-07-13T18:35:17;14.88;;;6.72;;
6093;SDS011;19964;42.060;24.700;2023-07-13T18:37:53;15.75;;;7.22;;
6093;SDS011;19964;42.060;24.700;2023-07-13T18:40:21;15.50;;;6.97;;
6093;SDS011;19964;42.060;24.700;2023-07-13T18:42:50;17.45;;;7.13;;
6093;SDS011;19964;42.060;24.700;2023-07-13T18:45:18;20.15;;;6.47;;
6093;SDS011;19964;42.060;24.700;2023-07-13T18:47:46;17.30;;;7.05;;
6093;SDS011;19964;42.060;24.700;2023-07-13T18:50:16;15.30;;;6.90;;
6093;SDS011;19964;42.060;24.700;2023-07-13T18:52:46;16.73;;;7.22;;
6093;SDS011;19964;42.060;24.700;2023-07-13T18:55:15;16.88;;;7.10;;
6093;SDS011;19964;42.060;24.700;2023-07-13T18:57:45;14.95;;;6.90;;
6093;SDS011;19964;42.060;24.700;2023-07-13T19:00:14;12.45;;;6.28;;
6093;SDS011;19964;42.060;24.700;2023-07-13T19:02:42;16.65;;;6.80;;
6093;SDS011;19964;42.060;24.700;2023-07-13T19:05:16;15.63;;;7.28;;
6093;SDS011;19964;42.060;24.700;2023-07-13T19:07:45;13.32;;;6.22;;
6093;SDS011;19964;42.060;24.700;2023-07-13T19:10:13;10.93;;;7.00;;
6093;SDS011;19964;42.060;24.700;2023-07-13T19:12:43;22.13;;;6.88;;
6093;SDS011;19964;42.060;24.700;2023-07-13T19:15:24;16.63;;;6.43;;
6093;SDS011;19964;42.060;24.700;2023-07-13T19:17:55;15.73;;;7.40;;
6093;SDS011;19964;42.060;24.700;2023-07-13T19:20:23;14.70;;;7.38;;
6093;SDS011;19964;42.060;24.700;2023-07-13T19:22:51;19.70;;;7.13;;
6093;SDS011;19964;42.060;24.700;2023-07-13T19:25:20;25.25;;;7.15;;
6093;SDS011;19964;42.060;24.700;2023-07-13T19:27:49;15.50;;;6.93;;
6093;SDS011;19964;42.060;24.700;2023-07-13T19:30:19;12.32;;;6.47;;
6093;SDS011;19964;42.060;24.700;2023-07-13T19:32:45;16.33;;;6.60;;
6093;SDS011;19964;42.060;24.700;2023-07-13T19:35:12;18.70;;;6.40;;
6093;SDS011;19964;42.060;24.700;2023-07-13T19:37:39;13.05;;;6.32;;
6093;SDS011;19964;42.060;24.700;2023-07-13T19:40:15;19.08;;;6.65;;
6093;SDS011;19964;42.060;24.700;2023-07-13T19:42:45;11.55;;;6.38;;